sensor_id;sensor_type;location;lat;lon;timestamp;temperature;humidity
1594;DHT22;790;47.000;16.084;2024-03-23T00:55:58;8.90;99.90
1594;DHT22;790;47.000;16.084;2024-03-23T01:02:21;8.80;99.90
1594;DHT22;790;47.000;16.084;2024-03-23T01:13:29;8.80;99.90
1594;DHT22;790;47.000;16.084;2024-03-23T01:19:51;8.70;99.90
1594;DHT22;790;47.000;16.084;2024-03-23T01:26:13;8.80;99.90
1594;DHT22;790;47.000;16.084;2024-03-23T01:32:36;8.80;99.90
1594;DHT22;790;47.000;16.084;2024-03-23T01:38:58;8.90;99.90
1594;DHT22;790;47.000;16.084;2024-03-23T01:45:20;8.90;99.90
1594;DHT22;790;47.000;16.084;2024-03-23T01:51:44;8.80;99.90
1594;DHT22;790;47.000;16.084;2024-03-23T01:58:07;8.70;99.90
1594;DHT22;790;47.000;16.084;2024-03-23T02:04:29;8.70;99.90
1594;DHT22;790;47.000;16.084;2024-03-23T02:15:39;8.40;99.90
1594;DHT22;790;47.000;16.084;2024-03-23T02:22:01;8.30;99.90
1594;DHT22;790;47.000;16.084;2024-03-23T02:28:25;8.40;99.90
1594;DHT22;790;47.000;16.084;2024-03-23T02:34:47;8.50;99.90
1594;DHT22;790;47.000;16.084;2024-03-23T02:41:09;8.40;99.90
1594;DHT22;790;47.000;16.084;2024-03-23T02:47:32;8.40;99.90
1594;DHT22;790;47.000;16.084;2024-03-23T02:53:54;8.30;99.90
1594;DHT22;790;47.000;16.084;2024-03-23T03:00:17;8.40;99.90
1594;DHT22;790;47.000;16.084;2024-03-23T03:06:41;8.40;99.90
1594;DHT22;790;47.000;16.084;2024-03-23T03:17:47;8.10;99.90
1594;DHT22;790;47.000;16.084;2024-03-23T03:24:10;7.90;99.90
1594;DHT22;790;47.000;16.084;2024-03-23T03:30:33;8.00;99.90
1594;DHT22;790;47.000;16.084;2024-03-23T03:36:55;8.10;99.90
1594;DHT22;790;47.000;16.084;2024-03-23T03:43:18;7.90;99.90
1594;DHT22;790;47.000;16.084;2024-03-23T03:49:41;7.90;99.90
1594;DHT22;790;47.000;16.084;2024-03-23T03:56:04;7.80;99.90
1594;DHT22;790;47.000;16.084;2024-03-23T04:02:28;7.70;99.90
1594;DHT22;790;47.000;16.084;2024-03-23T04:08:51;7.40;99.90
1594;DHT22;790;47.000;16.084;2024-03-23T04:19:58;7.30;99.90
1594;DHT22;790;47.000;16.084;2024-03-23T04:26:21;6.90;99.90
1594;DHT22;790;47.000;16.084;2024-03-23T04:32:43;6.90;99.90
1594;DHT22;790;47.000;16.084;2024-03-23T04:39:06;6.90;99.90
1594;DHT22;790;47.000;16.084;2024-03-23T04:45:29;6.90;99.90
1594;DHT22;790;47.000;16.084;2024-03-23T04:51:51;6.70;99.90
1594;DHT22;790;47.000;16.084;2024-03-23T04:58:14;6.60;99.90
1594;DHT22;790;47.000;16.084;2024-03-23T05:04:37;6.40;99.90
1594;DHT22;790;47.000;16.084;2024-03-23T05:11:01;6.60;99.90
1594;DHT22;790;47.000;16.084;2024-03-23T05:22:11;6.80;99.90
1594;DHT22;790;47.000;16.084;2024-03-23T05:28:34;6.90;99.90
1594;DHT22;790;47.000;16.084;2024-03-23T05:34:56;6.60;99.90
1594;DHT22;790;47.000;16.084;2024-03-23T05:41:20;6.80;99.90
1594;DHT22;790;47.000;16.084;2024-03-23T05:47:44;7.00;99.90
1594;DHT22;790;47.000;16.084;2024-03-23T05:54:07;7.20;99.90
1594;DHT22;790;47.000;16.084;2024-03-23T06:00:30;7.40;99.90
1594;DHT22;790;47.000;16.084;2024-03-23T06:06:53;7.60;99.90
1594;DHT22;790;47.000;16.084;2024-03-23T06:13:15;7.70;99.90
1594;DHT22;790;47.000;16.084;2024-03-23T06:24:24;7.90;99.90
1594;DHT22;790;47.000;16.084;2024-03-23T06:30:47;8.10;99.90
1594;DHT22;790;47.000;16.084;2024-03-23T06:37:10;8.30;99.90
1594;DHT22;790;47.000;16.084;2024-03-23T06:43:33;8.50;99.90
1594;DHT22;790;47.000;16.084;2024-03-23T06:50:16;8.80;99.90
1594;DHT22;790;47.000;16.084;2024-03-23T06:56:39;9.00;99.90
1594;DHT22;790;47.000;16.084;2024-03-23T07:03:12;9.30;99.90
1594;DHT22;790;47.000;16.084;2024-03-23T07:09:35;9.40;99.90
1594;DHT22;790;47.000;16.084;2024-03-23T07:15:58;9.60;99.90
1594;DHT22;790;47.000;16.084;2024-03-23T07:26:55;9.90;99.90
1594;DHT22;790;47.000;16.084;2024-03-23T07:33:18;10.30;99.90
1594;DHT22;790;47.000;16.084;2024-03-23T07:39:40;10.60;99.90
1594;DHT22;790;47.000;16.084;2024-03-23T07:46:04;10.80;99.90
1594;DHT22;790;47.000;16.084;2024-03-23T07:52:28;11.30;99.90
1594;DHT22;790;47.000;16.084;2024-03-23T07:58:51;11.40;99.90
1594;DHT22;790;47.000;16.084;2024-03-23T08:05:15;11.70;99.90
1594;DHT22;790;47.000;16.084;2024-03-23T08:11:37;11.80;99.90
1594;DHT22;790;47.000;16.084;2024-03-23T08:18:00;12.00;99.90
1594;DHT22;790;47.000;16.084;2024-03-23T08:28:49;12.30;99.90
1594;DHT22;790;47.000;16.084;2024-03-23T08:35:12;12.40;99.90
1594;DHT22;790;47.000;16.084;2024-03-23T08:41:34;12.50;99.90
1594;DHT22;790;47.000;16.084;2024-03-23T08:47:57;12.70;99.90
1594;DHT22;790;47.000;16.084;2024-03-23T08:54:20;13.10;99.90
1594;DHT22;790;47.000;16.084;2024-03-23T09:00:43;13.40;99.90
1594;DHT22;790;47.000;16.084;2024-03-23T09:07:06;13.80;99.90
1594;DHT22;790;47.000;16.084;2024-03-23T09:13:28;14.10;99.90
1594;DHT22;790;47.000;16.084;2024-03-23T09:19:50;14.10;99.90
1594;DHT22;790;47.000;16.084;2024-03-23T09:30:37;14.50;99.90
1594;DHT22;790;47.000;16.084;2024-03-23T09:37:02;14.60;99.90
1594;DHT22;790;47.000;16.084;2024-03-23T09:43:24;14.80;99.90
1594;DHT22;790;47.000;16.084;2024-03-23T09:49:47;14.90;99.90
1594;DHT22;790;47.000;16.084;2024-03-23T09:56:10;15.00;99.90
1594;DHT22;790;47.000;16.084;2024-03-23T10:02:33;15.20;99.90
1594;DHT22;790;47.000;16.084;2024-03-23T10:08:56;15.20;99.90
1594;DHT22;790;47.000;16.084;2024-03-23T10:15:21;15.20;99.90
1594;DHT22;790;47.000;16.084;2024-03-23T10:21:52;15.50;99.90
1594;DHT22;790;47.000;16.084;2024-03-23T10:32:49;15.80;99.90
1594;DHT22;790;47.000;16.084;2024-03-23T10:39:12;16.00;99.90
1594;DHT22;790;47.000;16.084;2024-03-23T10:45:37;16.20;99.90
1594;DHT22;790;47.000;16.084;2024-03-23T10:52:02;16.50;99.90
1594;DHT22;790;47.000;16.084;2024-03-23T10:58:44;16.90;99.90
1594;DHT22;790;47.000;16.084;2024-03-23T11:05:28;17.30;99.90
1594;DHT22;790;47.000;16.084;2024-03-23T11:11:52;17.60;99.90
1594;DHT22;790;47.000;16.084;2024-03-23T11:18:20;17.80;99.90
1594;DHT22;790;47.000;16.084;2024-03-23T11:24:42;18.00;99.90
1594;DHT22;790;47.000;16.084;2024-03-23T11:36:07;18.30;99.90
1594;DHT22;790;47.000;16.084;2024-03-23T11:42:29;18.30;99.90
1594;DHT22;790;47.000;16.084;2024-03-23T11:48:52;18.30;99.90
1594;DHT22;790;47.000;16.084;2024-03-23T11:55:16;18.40;99.90
1594;DHT22;790;47.000;16.084;2024-03-23T12:01:38;18.60;99.90
1594;DHT22;790;47.000;16.084;2024-03-23T12:08:15;18.80;99.90
1594;DHT22;790;47.000;16.084;2024-03-23T12:14:40;18.90;99.90
1594;DHT22;790;47.000;16.084;2024-03-23T12:21:04;19.00;99.90
1594;DHT22;790;47.000;16.084;2024-03-23T12:27:26;19.10;99.90
1594;DHT22;790;47.000;16.084;2024-03-23T12:38:45;19.10;99.90
1594;DHT22;790;47.000;16.084;2024-03-23T12:45:08;19.20;99.90
1594;DHT22;790;47.000;16.084;2024-03-23T12:51:30;19.50;99.90
1594;DHT22;790;47.000;16.084;2024-03-23T12:57:53;19.60;98.50
1594;DHT22;790;47.000;16.084;2024-03-23T13:04:17;19.60;98.80
1594;DHT22;790;47.000;16.084;2024-03-23T13:10:39;19.80;98.00
1594;DHT22;790;47.000;16.084;2024-03-23T13:17:03;19.80;98.80
1594;DHT22;790;47.000;16.084;2024-03-23T13:23:26;19.90;97.50
1594;DHT22;790;47.000;16.084;2024-03-23T13:29:48;20.00;99.10
1594;DHT22;790;47.000;16.084;2024-03-23T13:41:06;20.10;97.00
1594;DHT22;790;47.000;16.084;2024-03-23T13:47:29;20.20;98.70
1594;DHT22;790;47.000;16.084;2024-03-23T13:53:51;20.20;97.60
1594;DHT22;790;47.000;16.084;2024-03-23T14:00:16;20.20;96.50
1594;DHT22;790;47.000;16.084;2024-03-23T14:06:38;20.20;98.10
1594;DHT22;790;47.000;16.084;2024-03-23T14:13:02;20.30;97.80
1594;DHT22;790;47.000;16.084;2024-03-23T14:19:27;20.40;97.10
1594;DHT22;790;47.000;16.084;2024-03-23T14:25:48;20.30;96.30
1594;DHT22;790;47.000;16.084;2024-03-23T14:32:12;20.20;97.00
1594;DHT22;790;47.000;16.084;2024-03-23T14:43:32;19.90;98.00
1594;DHT22;790;47.000;16.084;2024-03-23T14:49:54;19.90;99.30
1594;DHT22;790;47.000;16.084;2024-03-23T14:56:17;19.90;97.40
1594;DHT22;790;47.000;16.084;2024-03-23T15:02:41;19.90;96.40
1594;DHT22;790;47.000;16.084;2024-03-23T15:09:02;19.80;95.50
1594;DHT22;790;47.000;16.084;2024-03-23T15:15:27;19.80;95.30
1594;DHT22;790;47.000;16.084;2024-03-23T15:21:52;19.60;95.80
1594;DHT22;790;47.000;16.084;2024-03-23T15:28:14;19.50;95.40
1594;DHT22;790;47.000;16.084;2024-03-23T15:34:37;19.50;95.20
1594;DHT22;790;47.000;16.084;2024-03-23T15:45:58;19.50;96.10
1594;DHT22;790;47.000;16.084;2024-03-23T15:52:20;19.30;96.60
1594;DHT22;790;47.000;16.084;2024-03-23T15:58:43;19.20;97.20
1594;DHT22;790;47.000;16.084;2024-03-23T16:05:08;19.10;97.60
1594;DHT22;790;47.000;16.084;2024-03-23T16:11:32;18.90;98.50
1594;DHT22;790;47.000;16.084;2024-03-23T16:17:55;18.80;98.40
1594;DHT22;790;47.000;16.084;2024-03-23T16:24:19;18.30;95.20
1594;DHT22;790;47.000;16.084;2024-03-23T16:30:41;16.90;95.50
1594;DHT22;790;47.000;16.084;2024-03-23T16:37:03;15.80;96.10
1594;DHT22;790;47.000;16.084;2024-03-23T16:48:24;13.40;99.90
1594;DHT22;790;47.000;16.084;2024-03-23T16:55:02;12.40;99.90
1594;DHT22;790;47.000;16.084;2024-03-23T17:01:47;11.30;99.90
1594;DHT22;790;47.000;16.084;2024-03-23T17:08:14;10.70;99.90
1594;DHT22;790;47.000;16.084;2024-03-23T17:14:38;10.40;99.90
1594;DHT22;790;47.000;16.084;2024-03-23T17:21:03;10.00;99.90
1594;DHT22;790;47.000;16.084;2024-03-23T17:27:28;9.70;99.90
1594;DHT22;790;47.000;16.084;2024-03-23T17:33:51;9.40;99.90
1594;DHT22;790;47.000;16.084;2024-03-23T17:40:13;9.10;99.90
1594;DHT22;790;47.000;16.084;2024-03-23T17:51:11;8.60;99.90
1594;DHT22;790;47.000;16.084;2024-03-23T17:57:34;8.80;99.90
1594;DHT22;790;47.000;16.084;2024-03-23T18:03:55;8.80;99.90
1594;DHT22;790;47.000;16.084;2024-03-23T18:10:19;8.70;99.90
1594;DHT22;790;47.000;16.084;2024-03-23T18:16:41;8.90;99.90
1594;DHT22;790;47.000;16.084;2024-03-23T18:23:05;9.20;99.90
1594;DHT22;790;47.000;16.084;2024-03-23T18:29:29;9.30;99.90
1594;DHT22;790;47.000;16.084;2024-03-23T18:35:52;8.80;99.90
1594;DHT22;790;47.000;16.084;2024-03-23T18:42:14;8.60;99.90
1594;DHT22;790;47.000;16.084;2024-03-23T18:53:03;8.20;99.90
1594;DHT22;790;47.000;16.084;2024-03-23T18:59:25;8.60;99.90
1594;DHT22;790;47.000;16.084;2024-03-23T19:05:52;8.80;99.90
1594;DHT22;790;47.000;16.084;2024-03-23T19:12:16;8.60;99.90
1594;DHT22;790;47.000;16.084;2024-03-23T19:18:38;8.80;99.90
1594;DHT22;790;47.000;16.084;2024-03-23T19:25:01;9.20;99.90
1594;DHT22;790;47.000;16.084;2024-03-23T19:31:25;9.20;99.90
1594;DHT22;790;47.000;16.084;2024-03-23T19:37:48;9.20;99.90
1594;DHT22;790;47.000;16.084;2024-03-23T19:44:10;9.30;99.90
1594;DHT22;790;47.000;16.084;2024-03-23T19:54:59;9.50;99.90
1594;DHT22;790;47.000;16.084;2024-03-23T20:01:21;9.70;99.90
1594;DHT22;790;47.000;16.084;2024-03-23T20:07:44;9.90;99.90
1594;DHT22;790;47.000;16.084;2024-03-23T20:14:08;9.80;99.90
1594;DHT22;790;47.000;16.084;2024-03-23T20:20:31;9.60;99.90
1594;DHT22;790;47.000;16.084;2024-03-23T20:26:53;9.60;99.90
1594;DHT22;790;47.000;16.084;2024-03-23T20:33:17;9.40;99.90
1594;DHT22;790;47.000;16.084;2024-03-23T20:39:38;9.50;99.90
1594;DHT22;790;47.000;16.084;2024-03-23T20:46:02;9.20;99.90
1594;DHT22;790;47.000;16.084;2024-03-23T20:56:49;9.30;99.90
1594;DHT22;790;47.000;16.084;2024-03-23T21:03:11;9.30;99.90
1594;DHT22;790;47.000;16.084;2024-03-23T21:09:33;9.20;99.90
1594;DHT22;790;47.000;16.084;2024-03-23T21:15:57;8.30;99.90
1594;DHT22;790;47.000;16.084;2024-03-23T21:22:21;7.10;99.90
1594;DHT22;790;47.000;16.084;2024-03-23T21:28:43;7.30;99.90
1594;DHT22;790;47.000;16.084;2024-03-23T21:35:07;7.30;99.90
1594;DHT22;790;47.000;16.084;2024-03-23T21:41:29;7.30;99.90
1594;DHT22;790;47.000;16.084;2024-03-23T21:47:53;7.60;99.90
1594;DHT22;790;47.000;16.084;2024-03-23T21:59:12;7.60;99.90
1594;DHT22;790;47.000;16.084;2024-03-23T22:05:34;7.70;99.90
1594;DHT22;790;47.000;16.084;2024-03-23T22:11:56;7.80;99.90
1594;DHT22;790;47.000;16.084;2024-03-23T22:18:20;8.10;99.90
1594;DHT22;790;47.000;16.084;2024-03-23T22:24:41;8.10;99.90
1594;DHT22;790;47.000;16.084;2024-03-23T22:31:04;8.20;99.90
1594;DHT22;790;47.000;16.084;2024-03-23T22:37:28;8.00;99.90
1594;DHT22;790;47.000;16.084;2024-03-23T22:43:50;7.80;99.90
1594;DHT22;790;47.000;16.084;2024-03-23T22:50:13;7.60;99.90
1594;DHT22;790;47.000;16.084;2024-03-23T23:01:22;7.40;99.90
1594;DHT22;790;47.000;16.084;2024-03-23T23:07:44;7.40;99.90
1594;DHT22;790;47.000;16.084;2024-03-23T23:14:07;7.50;99.90
1594;DHT22;790;47.000;16.084;2024-03-23T23:20:31;7.50;99.90
1594;DHT22;790;47.000;16.084;2024-03-23T23:26:53;7.50;99.90
1594;DHT22;790;47.000;16.084;2024-03-23T23:33:15;7.50;99.90
1594;DHT22;790;47.000;16.084;2024-03-23T23:39:39;7.40;99.90
1594;DHT22;790;47.000;16.084;2024-03-23T23:46:01;7.30;99.90
1594;DHT22;790;47.000;16.084;2024-03-23T23:52:24;7.40;99.90
